Terminal Aerodrome Forecast
Issued by NWS Duluth, MN

Home | Current Version | Previous Version | Text Only | Print | Product List | Glossary On
Versions: 1 2 3 4 5 6 7 8 9 10 11 12 13 14 15 16 17 18 19 20 21 22 23 24
000
FTUS43 KDLH 201000 AAA
TAFDLH
TAF AMD
KDLH 201003Z 2010/2106 29010KT 5SM BR OVC005
     FM201200 29010G18KT P6SM BKN015
     FM201600 27013G20KT P6SM SCT030
     FM202000 28011KT P6SM SCT050
     FM202300 28010KT P6SM -TSRA BKN050CB
     FM210300 30008KT P6SM -RA BKN025 OVC040=

USA.gov is the U.S. government's official web portal to all federal, state and local government web resources and services.